Time;durP1;ratioP1;P1;durP2;ratioP2;P2;SDS_P1;SDS_P2;PMS_P1;PMS_P2;Temp;Humidity;BMP_temperature;BMP_pressure;BME280_temperature;BME280_humidity;BME280_pressure;Samples;Min_cycle;Max_cycle;Signal;HPM_P1;HPM_P2
2021/08/03 00:00:32;;;;;;;;;;;;;;;14.16;100.00;98828.28;5073659;28;19924;-81
2021/08/03 00:03:01;;;;;;;;;;;;;;;14.12;100.00;98816.34;5060861;28;19928;-81
2021/08/03 00:05:29;;;;;;;;;;;;;;;14.03;100.00;98816.28;5090408;28;20048;-81
2021/08/03 00:07:59;;;;;;;;;;;;;;;13.56;100.00;98819.03;5090843;28;19928;-81
2021/08/03 00:10:27;;;;;;;;;;;;;;;13.49;100.00;98818.47;5056641;28;20363;-81
2021/08/03 00:12:54;;;;;;;;;;;;;;;13.49;100.00;98824.06;5090391;28;19924;-81
2021/08/03 00:15:22;;;;;;;;;;;;;;;13.76;100.00;98821.59;5107215;28;19924;-81
2021/08/03 00:17:54;;;;;;;;;;;;;;;13.77;100.00;98815.53;5073043;28;19925;-81
2021/08/03 00:20:22;;;;;;;;;;;;;;;13.77;100.00;98811.91;5056566;28;19990;-81
2021/08/03 00:22:49;;;;;;;;;;;;;;;13.76;100.00;98815.97;5073391;28;20005;-81
2021/08/03 00:25:17;;;;;;;;;;;;;;;13.64;100.00;98808.34;5073527;28;19967;-81
2021/08/03 00:27:44;;;;;;;;;;;;;;;13.70;100.00;98803.75;5073300;28;19924;-81
2021/08/03 00:30:12;;;;;;;;;;;;;;;13.65;100.00;98804.28;5073091;28;19931;-82
2021/08/03 00:32:40;;;;;;;;;;;;;;;13.64;100.00;98808.34;5072957;28;20368;-82
2021/08/03 00:35:08;;;;;;;;;;;;;;;13.62;100.00;98805.19;5056516;28;19929;-81
2021/08/03 00:37:36;;;;;;;;;;;;;;;13.54;100.00;98801.06;5074534;28;20011;-82
2021/08/03 00:40:04;;;;;;;;;;;;;;;13.46;100.00;98786.47;5073951;28;19925;-82
2021/08/03 00:42:34;;;;;;;;;;;;;;;13.46;100.00;98796.91;5073830;28;19925;-82
2021/08/03 00:45:02;;;;;;;;;;;;;;;13.40;100.00;98798.69;5072661;28;19924;-82
2021/08/03 00:47:35;;;;;;;;;;;;;;;13.09;100.00;98792.03;5073631;28;19924;-82
2021/08/03 00:50:07;;;;;;;;;;;;;;;12.61;100.00;98804.25;5055951;28;19931;-82
2021/08/03 00:52:36;;;;;;;;;;;;;;;12.51;100.00;98802.53;5039428;28;19936;-82
2021/08/03 00:55:04;;;;;;;;;;;;;;;12.96;100.00;98796.81;5072476;28;20546;-82
2021/08/03 00:57:33;;;;;;;;;;;;;;;13.12;100.00;98802.34;5072633;28;20387;-82
2021/08/03 01:00:02;;;;;;;;;;;;;;;13.13;100.00;98801.16;5072386;28;19990;-82
2021/08/03 01:02:33;;;;;;;;;;;;;;;12.57;100.00;98798.72;5056667;28;19924;-81
2021/08/03 01:05:04;;;;;;;;;;;;;;;12.07;100.00;98804.09;5073082;28;19932;-81
2021/08/03 01:07:38;;;;;;;;;;;;;;;11.90;100.00;98805.34;5055721;28;19925;-81
2021/08/03 01:10:19;;;;;;;;;;;;;;;12.17;100.00;98813.44;5063507;28;19925;-82
2021/08/03 01:12:48;;;;;;;;;;;;;;;12.09;100.00;98809.25;5068748;28;20035;-82
2021/08/03 01:15:18;;;;;;;;;;;;;;;11.76;100.00;98804.91;5072757;28;19935;-82
2021/08/03 01:17:46;;;;;;;;;;;;;;;11.26;100.00;98802.47;5070570;28;19924;-82
2021/08/03 01:20:16;;;;;;;;;;;;;;;11.17;100.00;98813.47;5055668;28;19932;-82
2021/08/03 01:23:02;;;;;;;;;;;;;;;10.60;100.00;98811.06;5072799;28;19928;-82
2021/08/03 01:25:33;;;;;;;;;;;;;;;11.53;100.00;98808.63;5072459;28;19972;-82
2021/08/03 01:28:00;;;;;;;;;;;;;;;12.02;100.00;98793.44;5055821;28;19948;-82
2021/08/03 01:30:27;;;;;;;;;;;;;;;12.27;100.00;98796.38;5072126;28;19932;-81
2021/08/03 01:32:56;;;;;;;;;;;;;;;12.45;100.00;98785.47;5058436;28;20008;-82
2021/08/03 01:35:25;;;;;;;;;;;;;;;12.51;100.00;98791.31;5072007;28;20009;-82
2021/08/03 01:37:53;;;;;;;;;;;;;;;12.53;100.00;98791.66;5055604;28;19931;-82
2021/08/03 01:40:24;;;;;;;;;;;;;;;12.67;100.00;98791.25;5071648;28;19986;-82
2021/08/03 01:42:53;;;;;;;;;;;;;;;12.37;100.00;98789.66;5055163;28;19924;-82
2021/08/03 01:45:22;;;;;;;;;;;;;;;12.49;100.00;98788.16;5038569;28;20029;-82
2021/08/03 01:47:54;;;;;;;;;;;;;;;12.39;100.00;98792.81;5055384;28;19936;-82
2021/08/03 01:50:25;;;;;;;;;;;;;;;12.32;100.00;98784.63;5089161;28;19967;-82
2021/08/03 01:52:58;;;;;;;;;;;;;;;12.38;100.00;98780.06;5038656;28;19924;-81
2021/08/03 01:55:28;;;;;;;;;;;;;;;11.40;100.00;98790.97;5035761;28;19932;-81
2021/08/03 01:58:01;;;;;;;;;;;;;;;11.52;100.00;98783.88;5068103;28;19924;-81
2021/08/03 02:00:37;;;;;;;;;;;;;;;11.73;100.00;98789.78;5055497;28;19928;-81
2021/08/03 02:03:12;;;;;;;;;;;;;;;11.83;100.00;98787.94;5056553;28;19925;-81
2021/08/03 02:05:41;;;;;;;;;;;;;;;11.16;100.00;98788.75;5073663;28;19925;-81
2021/08/03 02:08:18;;;;;;;;;;;;;;;11.25;100.00;98786.94;5075860;28;19924;-81
2021/08/03 02:10:52;;;;;;;;;;;;;;;11.48;100.00;98789.56;5109693;28;20333;-81
2021/08/03 02:13:19;;;;;;;;;;;;;;;11.17;100.00;98796.69;5076531;28;19925;-81
2021/08/03 02:15:47;;;;;;;;;;;;;;;11.12;100.00;98797.19;5076020;28;20447;-81
2021/08/03 02:18:16;;;;;;;;;;;;;;;11.08;100.00;98798.50;5075568;28;19952;-81
2021/08/03 02:20:49;;;;;;;;;;;;;;;11.56;100.00;98790.97;5109212;28;19924;-81
2021/08/03 02:23:21;;;;;;;;;;;;;;;11.71;100.00;98792.22;5059282;28;19964;-81
2021/08/03 02:25:54;;;;;;;;;;;;;;;11.83;100.00;98787.94;5058945;28;20561;-81
2021/08/03 02:28:22;;;;;;;;;;;;;;;11.36;100.00;98787.44;5075621;28;19947;-81
2021/08/03 02:30:50;;;;;;;;;;;;;;;11.57;100.00;98794.56;5075303;28;19947;-81
2021/08/03 02:33:23;;;;;;;;;;;;;;;11.37;100.00;98797.44;5059024;28;20007;-81
2021/08/03 02:35:55;;;;;;;;;;;;;;;10.98;100.00;98793.94;5092031;28;20280;-82
2021/08/03 02:38:25;;;;;;;;;;;;;;;9.91;100.00;98790.84;5058750;28;20012;-82
2021/08/03 02:40:54;;;;;;;;;;;;;;;10.61;100.00;98786.72;5091903;28;19932;-81
2021/08/03 02:43:27;;;;;;;;;;;;;;;11.16;100.00;98795.13;5058510;28;19947;-81
2021/08/03 02:46:00;;;;;;;;;;;;;;;11.27;100.00;98790.06;5058261;28;19928;-82
2021/08/03 02:48:28;;;;;;;;;;;;;;;11.07;100.00;98786.53;5038392;28;20296;-81
2021/08/03 02:50:56;;;;;;;;;;;;;;;10.84;100.00;98783.84;5054206;28;20291;-82
2021/08/03 02:53:26;;;;;;;;;;;;;;;10.66;100.00;98789.03;5074798;28;20015;-81
2021/08/03 02:55:57;;;;;;;;;;;;;;;11.15;100.00;98785.16;5058019;28;19925;-81
2021/08/03 02:58:36;;;;;;;;;;;;;;;11.21;100.00;98783.41;5108985;28;20333;-81
2021/08/03 03:01:06;;;;;;;;;;;;;;;11.43;100.00;98781.72;5074847;28;19925;-81
2021/08/03 03:03:36;;;;;;;;;;;;;;;11.27;100.00;98790.06;5075009;28;19932;-82
2021/08/03 03:06:04;;;;;;;;;;;;;;;11.43;100.00;98778.91;5057963;28;20410;-81
2021/08/03 03:08:34;;;;;;;;;;;;;;;11.49;100.00;98779.16;5051192;28;19925;-82
2021/08/03 03:11:04;;;;;;;;;;;;;;;11.07;100.00;98786.53;5068240;28;20388;-81
2021/08/03 03:13:35;;;;;;;;;;;;;;;10.18;100.00;98788.78;5040918;28;19932;-81
2021/08/03 03:16:05;;;;;;;;;;;;;;;10.53;100.00;98791.69;5067659;28;19924;-82
2021/08/03 03:18:32;;;;;;;;;;;;;;;10.95;100.00;98785.19;5057450;28;19926;-82
2021/08/03 03:21:04;;;;;;;;;;;;;;;11.08;100.00;98788.13;5046429;28;19925;-82
2021/08/03 03:23:35;;;;;;;;;;;;;;;11.29;100.00;98787.63;5055536;28;19925;-82
2021/08/03 03:26:04;;;;;;;;;;;;;;;11.30;100.00;98780.81;5037685;28;19990;-82
2021/08/03 03:28:34;;;;;;;;;;;;;;;11.36;100.00;98779.06;5055547;28;20377;-81
2021/08/03 03:31:02;;;;;;;;;;;;;;;11.49;100.00;98762.38;5048062;28;20388;-82
2021/08/03 03:33:35;;;;;;;;;;;;;;;11.45;100.00;98773.66;5007560;28;19931;-81
2021/08/03 03:36:03;;;;;;;;;;;;;;;11.23;100.00;98772.59;5021110;28;20007;-81
2021/08/03 03:38:33;;;;;;;;;;;;;;;10.38;100.00;98782.00;5021008;28;20380;-81
2021/08/03 03:41:00;;;;;;;;;;;;;;;9.48;100.00;98792.78;5045596;28;19932;-82
2021/08/03 03:43:30;;;;;;;;;;;;;;;9.95;100.00;98783.22;5049136;28;20368;-82
2021/08/03 03:46:08;;;;;;;;;;;;;;;10.70;100.00;98784.94;5041497;28;20299;-82
2021/08/03 03:48:39;;;;;;;;;;;;;;;10.93;100.00;98782.03;5029906;28;20368;-82
2021/08/03 03:51:08;;;;;;;;;;;;;;;11.11;100.00;98778.84;5051531;28;19932;-82
2021/08/03 03:53:56;;;;;;;;;;;;;;;11.19;100.00;98771.88;5017308;28;19925;-82
2021/08/03 03:56:24;;;;;;;;;;;;;;;11.15;100.00;98771.16;5027131;28;19948;-82
2021/08/03 03:58:57;;;;;;;;;;;;;;;11.06;100.00;98773.78;5021050;28;20742;-82
2021/08/03 04:01:25;;;;;;;;;;;;;;;10.55;100.00;98768.91;5050821;28;19963;-81
2021/08/03 04:03:53;;;;;;;;;;;;;;;10.77;100.00;98782.00;5020769;28;20542;-82
2021/08/03 04:06:21;;;;;;;;;;;;;;;10.50;100.00;98777.78;5020779;28;20384;-82
2021/08/03 04:08:49;;;;;;;;;;;;;;;10.78;100.00;98777.19;5079536;28;19928;-82
2021/08/03 04:11:16;;;;;;;;;;;;;;;10.76;100.00;98771.25;5024808;28;19947;-82
2021/08/03 04:13:50;;;;;;;;;;;;;;;10.73;100.00;98772.09;5021988;28;19947;-81
2021/08/03 04:16:19;;;;;;;;;;;;;;;10.78;100.00;98785.59;5034147;28;20011;-82
2021/08/03 04:18:47;;;;;;;;;;;;;;;10.47;100.00;98776.63;4990587;28;19987;-82
2021/08/03 04:21:14;;;;;;;;;;;;;;;9.51;100.00;98783.56;5073322;28;19970;-82
2021/08/03 04:23:41;;;;;;;;;;;;;;;9.75;100.00;98782.34;5073300;28;19971;-82
2021/08/03 04:26:09;;;;;;;;;;;;;;;10.28;100.00;98783.00;5073667;28;19928;-82
2021/08/03 04:28:36;;;;;;;;;;;;;;;10.57;100.00;98777.66;5056412;28;19924;-82
2021/08/03 04:31:04;;;;;;;;;;;;;;;10.59;100.00;98780.78;5074275;28;19925;-82
2021/08/03 04:33:31;;;;;;;;;;;;;;;10.39;100.00;98783.56;5075507;28;19986;-82
2021/08/03 04:35:58;;;;;;;;;;;;;;;10.58;100.00;98788.38;5036312;28;19983;-82
2021/08/03 04:38:26;;;;;;;;;;;;;;;10.78;100.00;98785.59;5084466;28;19931;-82
2021/08/03 04:40:53;;;;;;;;;;;;;;;10.85;100.00;98786.22;5073020;28;19925;-82
2021/08/03 04:43:22;;;;;;;;;;;;;;;10.88;100.00;98790.16;5072960;28;19925;-82
2021/08/03 04:45:49;;;;;;;;;;;;;;;10.92;100.00;98793.66;5058115;28;19924;-82
2021/08/03 04:48:20;;;;;;;;;;;;;;;10.93;100.00;98792.44;5045032;28;19924;-82
2021/08/03 04:50:47;;;;;;;;;;;;;;;10.82;100.00;98791.88;5056184;28;19924;-82
2021/08/03 04:53:17;;;;;;;;;;;;;;;11.10;100.00;98791.28;5065633;28;20037;-82
2021/08/03 04:55:48;;;;;;;;;;;;;;;11.49;100.00;98795.94;5067917;28;20368;-82
2021/08/03 04:58:17;;;;;;;;;;;;;;;11.58;100.00;98782.94;5075506;28;20406;-82
2021/08/03 05:00:46;;;;;;;;;;;;;;;11.74;100.00;98785.75;5072635;28;19928;-82
2021/08/03 05:03:14;;;;;;;;;;;;;;;11.27;100.00;98792.09;5039522;28;19974;-82
2021/08/03 05:05:42;;;;;;;;;;;;;;;10.92;100.00;98796.44;5056170;28;19959;-85
2021/08/03 05:08:10;;;;;;;;;;;;;;;10.96;100.00;98797.16;5041722;28;20019;-85
2021/08/03 05:10:39;;;;;;;;;;;;;;;11.09;100.00;98795.28;5056244;28;19924;-85
2021/08/03 05:13:06;;;;;;;;;;;;;;;11.62;100.00;98805.22;5071780;28;19932;-85
2021/08/03 05:15:35;;;;;;;;;;;;;;;12.03;100.00;98803.41;5055683;28;20019;-86
2021/08/03 05:18:02;;;;;;;;;;;;;;;12.24;100.00;98802.06;5069933;28;19925;-85
2021/08/03 05:20:30;;;;;;;;;;;;;;;12.46;100.00;98795.44;5053808;28;20283;-86
2021/08/03 05:22:57;;;;;;;;;;;;;;;12.41;100.00;98795.97;5051648;28;20015;-85
2021/08/03 05:25:25;;;;;;;;;;;;;;;12.42;100.00;98791.16;5084740;28;19924;-85
2021/08/03 05:27:52;;;;;;;;;;;;;;;12.63;100.00;98799.00;5073349;28;19924;-85
2021/08/03 05:30:21;;;;;;;;;;;;;;;12.69;100.00;98797.97;5053911;28;19928;-86
2021/08/03 05:32:48;;;;;;;;;;;;;;;12.81;100.00;98812.50;5088904;28;19931;-85
2021/08/03 05:35:15;;;;;;;;;;;;;;;12.82;100.00;98803.63;5074230;28;19924;-86
2021/08/03 05:37:42;;;;;;;;;;;;;;;12.42;100.00;98791.16;5062405;28;19931;-86
2021/08/03 05:40:12;;;;;;;;;;;;;;;13.01;100.00;98794.28;5053198;28;19928;-85
2021/08/03 05:42:40;;;;;;;;;;;;;;;13.19;100.00;98793.75;5059374;28;19925;-86
2021/08/03 05:45:08;;;;;;;;;;;;;;;13.52;100.00;98786.69;5039867;28;19931;-85
2021/08/03 05:47:36;;;;;;;;;;;;;;;13.67;100.00;98797.00;5073606;28;19925;-86
2021/08/03 05:50:05;;;;;;;;;;;;;;;13.52;100.00;98789.50;5059571;28;19958;-85
2021/08/03 05:52:33;;;;;;;;;;;;;;;13.72;100.00;98798.47;5059656;28;19925;-86
2021/08/03 05:55:00;;;;;;;;;;;;;;;13.91;100.00;98783.38;5076543;28;19925;-86
2021/08/03 05:57:30;;;;;;;;;;;;;;;13.06;100.00;98798.53;5062983;28;19925;-85
2021/08/03 05:59:57;;;;;;;;;;;;;;;13.21;100.00;98792.06;5070245;28;19925;-85
2021/08/03 06:02:24;;;;;;;;;;;;;;;13.84;100.00;98801.25;5075767;28;19931;-85
2021/08/03 06:04:56;;;;;;;;;;;;;;;14.35;100.00;98790.69;5090834;28;20048;-86
2021/08/03 06:07:24;;;;;;;;;;;;;;;13.89;100.00;98797.88;5059076;28;20383;-82
2021/08/03 06:09:56;;;;;;;;;;;;;;;13.71;100.00;98802.50;5051146;28;19973;-88
2021/08/03 06:12:27;;;;;;;;;;;;;;;13.85;100.00;98802.81;5104037;27;20401;-84
2021/08/03 06:14:56;;;;;;;;;;;;;;;14.08;100.00;98805.25;5078107;28;19924;-84
2021/08/03 06:17:34;;;;;;;;;;;;;;;14.82;100.00;98797.00;5075705;28;20375;-84
2021/08/03 06:20:01;;;;;;;;;;;;;;;15.28;100.00;98793.22;5076275;28;20007;-84
2021/08/03 06:22:29;;;;;;;;;;;;;;;15.18;100.00;98791.59;5069389;28;20319;-84
2021/08/03 06:24:57;;;;;;;;;;;;;;;14.97;100.00;98794.44;5103296;28;19925;-84
2021/08/03 06:27:24;;;;;;;;;;;;;;;15.42;100.00;98794.75;5076500;28;20395;-84
2021/08/03 06:29:53;;;;;;;;;;;;;;;16.04;100.00;98796.97;5042220;28;19973;-85
2021/08/03 06:32:22;;;;;;;;;;;;;;;16.40;100.00;98795.47;5076635;28;19925;-84
2021/08/03 06:34:49;;;;;;;;;;;;;;;16.71;100.00;98787.63;5058559;28;19935;-84
2021/08/03 06:37:16;;;;;;;;;;;;;;;16.90;100.00;98777.91;5076247;28;19924;-84
2021/08/03 06:39:43;;;;;;;;;;;;;;;17.00;100.00;98787.91;5071563;28;19925;-83
2021/08/03 06:42:15;;;;;;;;;;;;;;;17.17;100.00;98780.69;5063323;28;19958;-78
2021/08/03 06:45:02;;;;;;;;;;;;;;;17.16;100.00;98779.88;5069238;28;19943;-79
2021/08/03 06:47:42;;;;;;;;;;;;;;;16.94;100.00;98778.53;5069009;28;19947;-79
2021/08/03 06:50:12;;;;;;;;;;;;;;;16.94;100.00;98779.31;5071812;28;19959;-79
2021/08/03 06:52:40;;;;;;;;;;;;;;;16.94;100.00;98768.03;5086517;28;20407;-79
2021/08/03 06:55:07;;;;;;;;;;;;;;;16.99;100.00;98775.06;5072020;28;19925;-78
2021/08/03 06:57:35;;;;;;;;;;;;;;;17.09;100.00;98765.31;5031064;28;19929;-77
2021/08/03 07:00:07;;;;;;;;;;;;;;;17.69;100.00;98766.09;5071098;28;20015;-78
2021/08/03 07:02:41;;;;;;;;;;;;;;;18.93;100.00;98767.66;5058719;28;20082;-76
2021/08/03 07:05:13;;;;;;;;;;;;;;;20.52;100.00;98765.03;5070281;28;19932;-77
2021/08/03 07:07:42;;;;;;;;;;;;;;;22.20;100.00;98748.47;5044095;28;19928;-77
2021/08/03 07:10:10;;;;;;;;;;;;;;;23.77;100.00;98751.91;5065556;28;20391;-79
2021/08/03 07:12:40;;;;;;;;;;;;;;;24.82;100.00;98743.84;5063750;28;19947;-76
2021/08/03 07:15:08;;;;;;;;;;;;;;;25.74;100.00;98729.38;5090091;27;19924;-77
2021/08/03 07:17:37;;;;;;;;;;;;;;;26.65;100.00;98722.94;5051965;28;19936;-78
2021/08/03 07:20:04;;;;;;;;;;;;;;;26.98;100.00;98720.38;5064101;28;19928;-77
2021/08/03 07:22:34;;;;;;;;;;;;;;;27.66;100.00;98725.31;5067944;28;19924;-78
2021/08/03 07:25:03;;;;;;;;;;;;;;;27.74;100.00;98726.22;5069149;28;19925;-78
2021/08/03 07:27:30;;;;;;;;;;;;;;;28.14;100.00;98718.47;5075561;28;19958;-78
2021/08/03 07:29:57;;;;;;;;;;;;;;;29.00;100.00;98713.50;5077525;28;19935;-78
2021/08/03 07:32:25;;;;;;;;;;;;;;;29.24;100.00;98718.97;5076310;28;20375;-77
2021/08/03 07:34:52;;;;;;;;;;;;;;;29.22;100.00;98718.75;5073520;28;20429;-77
2021/08/03 07:37:19;;;;;;;;;;;;;;;29.38;100.00;98717.59;5070764;28;20324;-77
2021/08/03 07:39:46;;;;;;;;;;;;;;;27.52;100.00;98717.22;5069997;28;20395;-78
2021/08/03 07:42:13;;;;;;;;;;;;;;;27.75;100.00;98730.63;5062314;28;20368;-78
2021/08/03 07:44:43;;;;;;;;;;;;;;;28.00;100.00;98726.28;5065846;28;20124;-78
2021/08/03 07:47:12;;;;;;;;;;;;;;;26.64;100.00;98727.91;5066008;28;20372;-78
2021/08/03 07:49:39;;;;;;;;;;;;;;;25.09;100.00;98745.75;5049784;28;19933;-79
2021/08/03 07:52:07;;;;;;;;;;;;;;;24.53;100.00;98750.19;5060880;28;20295;-79
2021/08/03 07:54:35;;;;;;;;;;;;;;;25.14;100.00;98753.53;5069090;28;19974;-78
2021/08/03 07:57:02;;;;;;;;;;;;;;;25.44;100.00;98748.66;5071323;28;19924;-79
2021/08/03 07:59:30;;;;;;;;;;;;;;;27.27;100.00;98744.47;5063829;28;20011;-77
2021/08/03 08:01:57;;;;;;;;;;;;;;;28.82;100.00;98740.31;5066936;28;19928;-77
2021/08/03 08:04:25;;;;;;;;;;;;;;;29.25;100.00;98732.03;5067965;28;19928;-77
2021/08/03 08:06:53;;;;;;;;;;;;;;;29.13;100.00;98727.84;5068736;28;19931;-77
2021/08/03 08:09:22;;;;;;;;;;;;;;;29.42;100.00;98729.50;5060754;28;19932;-77
2021/08/03 08:11:49;;;;;;;;;;;;;;;28.74;100.00;98730.03;5056368;28;19931;-78
2021/08/03 08:14:16;;;;;;;;;;;;;;;28.83;100.00;98733.22;5069535;28;19932;-78
2021/08/03 08:16:43;;;;;;;;;;;;;;;29.69;100.00;98733.81;5060211;28;20398;-78
2021/08/03 08:19:11;;;;;;;;;;;;;;;30.36;100.00;98712.66;5061726;28;19931;-78
2021/08/03 08:21:38;;;;;;;;;;;;;;;30.70;100.00;98709.56;5089722;28;19938;-78
2021/08/03 08:24:06;;;;;;;;;;;;;;;30.70;100.00;98721.09;5056839;28;19932;-79
2021/08/03 08:26:33;;;;;;;;;;;;;;;29.76;100.00;98727.34;5069522;28;19952;-81
2021/08/03 08:29:00;;;;;;;;;;;;;;;30.91;100.00;98718.91;5069654;28;19935;-80
2021/08/03 08:31:27;;;;;;;;;;;;;;;31.17;100.00;98712.84;5058948;28;19931;-80
2021/08/03 08:33:55;;;;;;;;;;;;;;;29.74;100.00;98718.53;5067977;28;19924;-80
2021/08/03 08:36:22;;;;;;;;;;;;;;;29.32;100.00;98711.16;5065416;28;19930;-79
2021/08/03 08:38:49;;;;;;;;;;;;;;;29.63;100.00;98713.06;5065053;28;20035;-78
2021/08/03 08:41:16;;;;;;;;;;;;;;;30.75;100.00;98705.75;5063563;28;19952;-76
2021/08/03 08:43:44;;;;;;;;;;;;;;;31.36;100.00;98707.53;5065454;28;20347;-77
2021/08/03 08:46:13;;;;;;;;;;;;;;;30.24;100.00;98714.31;5063489;28;20363;-77
2021/08/03 08:48:42;;;;;;;;;;;;;;;26.64;100.00;98718.53;5068898;28;19931;-75
2021/08/03 08:51:09;;;;;;;;;;;;;;;26.39;100.00;98718.56;5069877;28;19931;-79
2021/08/03 08:53:37;;;;;;;;;;;;;;;27.50;100.00;98714.13;5070106;28;19990;-79
2021/08/03 08:56:04;;;;;;;;;;;;;;;26.71;100.00;98715.81;5070024;28;20399;-79
2021/08/03 08:58:32;;;;;;;;;;;;;;;25.08;100.00;98721.34;5068184;28;19925;-77
2021/08/03 09:01:00;;;;;;;;;;;;;;;26.34;100.00;98727.19;5069645;28;19928;-77
2021/08/03 09:03:29;;;;;;;;;;;;;;;27.40;100.00;98718.72;5069385;28;19932;-78
2021/08/03 09:05:57;;;;;;;;;;;;;;;26.05;100.00;98720.25;5057778;28;19924;-77
2021/08/03 09:08:32;;;;;;;;;;;;;;;25.63;100.00;98718.03;5049025;28;19931;-77
2021/08/03 09:11:21;;;;;;;;;;;;;;;25.24;100.00;98726.16;5061164;28;19951;-77
2021/08/03 09:13:51;;;;;;;;;;;;;;;26.37;100.00;98726.91;5046357;28;20050;-77
2021/08/03 09:16:19;;;;;;;;;;;;;;;25.49;100.00;98716.34;5048111;28;19974;-77
2021/08/03 09:18:47;;;;;;;;;;;;;;;25.47;100.00;98718.97;5089605;28;19963;-77
2021/08/03 09:21:19;;;;;;;;;;;;;;;24.46;100.00;98722.19;5054110;28;19944;-76
2021/08/03 09:24:12;;;;;;;;;;;;;;;24.80;100.00;98729.28;5070447;28;19924;-77
2021/08/03 09:26:43;;;;;;;;;;;;;;;25.13;100.00;98708.31;5065052;28;19925;-78
2021/08/03 09:29:14;;;;;;;;;;;;;;;24.21;100.00;98720.44;5064539;28;19924;-78
2021/08/03 09:31:50;;;;;;;;;;;;;;;25.50;100.00;98706.47;5053796;28;19936;-78
2021/08/03 09:34:17;;;;;;;;;;;;;;;25.52;100.00;98706.69;5053794;28;19930;-78
2021/08/03 09:36:55;;;;;;;;;;;;;;;26.08;100.00;98709.81;5053052;28;20287;-78
2021/08/03 09:39:34;;;;;;;;;;;;;;;26.39;100.00;98706.31;5074732;28;19983;-78
2021/08/03 09:42:04;;;;;;;;;;;;;;;25.67;100.00;98701.38;5053128;28;19928;-78
2021/08/03 09:44:31;;;;;;;;;;;;;;;24.77;100.00;98710.34;5063425;28;20005;-77
2021/08/03 09:46:59;;;;;;;;;;;;;;;25.12;100.00;98704.66;5067479;28;19924;-75
2021/08/03 09:49:36;;;;;;;;;;;;;;;25.40;100.00;98702.38;5065462;28;19959;-77
2021/08/03 09:52:05;;;;;;;;;;;;;;;25.33;100.00;98690.75;5062795;28;19924;-77
2021/08/03 09:54:33;;;;;;;;;;;;;;;25.58;100.00;98693.13;5066560;28;19924;-77
2021/08/03 09:57:01;;;;;;;;;;;;;;;25.96;100.00;98697.66;5040951;28;19932;-78
2021/08/03 09:59:37;;;;;;;;;;;;;;;24.53;100.00;98710.19;5055710;28;20380;-78
2021/08/03 10:02:04;;;;;;;;;;;;;;;24.73;100.00;98701.28;5052683;28;19978;-77
2021/08/03 10:04:32;;;;;;;;;;;;;;;24.71;100.00;98703.91;5074710;28;19936;-78
2021/08/03 10:07:00;;;;;;;;;;;;;;;25.33;100.00;98700.13;5053166;28;19925;-77
2021/08/03 10:09:27;;;;;;;;;;;;;;;24.94;100.00;98698.81;5056101;28;20014;-78
2021/08/03 10:11:55;;;;;;;;;;;;;;;24.74;100.00;98692.19;5056322;28;20017;-77
2021/08/03 10:14:25;;;;;;;;;;;;;;;25.47;100.00;98689.59;5052825;28;19998;-77
2021/08/03 10:16:53;;;;;;;;;;;;;;;23.61;100.00;98687.13;5059151;28;19925;-77
2021/08/03 10:19:22;;;;;;;;;;;;;;;23.73;100.00;98700.84;5054193;28;20019;-77
2021/08/03 10:22:02;;;;;;;;;;;;;;;23.41;100.00;98684.56;5056632;28;19928;-78
2021/08/03 10:24:31;;;;;;;;;;;;;;;22.70;100.00;98689.66;5052309;28;19925;-78
2021/08/03 10:27:22;;;;;;;;;;;;;;;23.17;100.00;98678.56;5067858;28;19974;-78
2021/08/03 10:29:54;;;;;;;;;;;;;;;24.21;100.00;98672.72;5063951;28;19929;-77
2021/08/03 10:32:41;;;;;;;;;;;;;;;23.94;100.00;98673.56;5067227;28;20007;-78
2021/08/03 10:35:15;;;;;;;;;;;;;;;22.75;100.00;98676.75;5070633;28;20361;-78
2021/08/03 10:37:58;;;;;;;;;;;;;;;24.18;100.00;98675.84;5094204;28;19929;-78
2021/08/03 10:40:44;;;;;;;;;;;;;;;25.07;100.00;98668.31;5073007;28;20302;-79
2021/08/03 10:43:14;;;;;;;;;;;;;;;24.97;100.00;98663.47;5077727;28;19929;-79
2021/08/03 10:45:42;;;;;;;;;;;;;;;24.73;100.00;98664.16;5071478;28;20535;-78
2021/08/03 10:48:10;;;;;;;;;;;;;;;24.84;100.00;98677.59;5072520;28;19974;-78
2021/08/03 10:50:38;;;;;;;;;;;;;;;24.60;100.00;98666.78;5072190;28;19924;-79
2021/08/03 10:53:06;;;;;;;;;;;;;;;24.02;100.00;98670.97;5070350;28;19924;-75
2021/08/03 10:55:34;;;;;;;;;;;;;;;24.42;100.00;98665.34;5063763;28;19978;-80
2021/08/03 10:58:08;;;;;;;;;;;;;;;23.72;100.00;98678.56;5068632;28;19924;-79
2021/08/03 11:00:52;;;;;;;;;;;;;;;23.90;100.00;98680.84;5057011;28;19970;-79
2021/08/03 11:07:38;;;;;;;;;;;;;;;23.70;100.00;98675.44;5124316;27;19957;-81
2021/08/03 11:10:09;;;;;;;;;;;;;;;23.97;100.00;98675.41;5102002;28;20383;-79
2021/08/03 11:12:40;;;;;;;;;;;;;;;23.89;100.00;98667.84;5091037;28;20508;-81
2021/08/03 11:15:22;;;;;;;;;;;;;;;23.22;100.00;98670.00;5103785;28;19973;-80
2021/08/03 11:17:56;;;;;;;;;;;;;;;23.27;100.00;98668.47;5081222;28;19928;-81
2021/08/03 11:20:36;;;;;;;;;;;;;;;23.74;100.00;98670.22;5074195;28;19928;-82
2021/08/03 11:23:07;;;;;;;;;;;;;;;23.81;100.00;98664.00;5108646;28;19931;-79
2021/08/03 11:25:34;;;;;;;;;;;;;;;23.50;100.00;98650.06;5099416;28;20458;-78
2021/08/03 11:28:21;;;;;;;;;;;;;;;24.46;100.00;98659.38;5109691;28;19975;-79
2021/08/03 11:30:50;;;;;;;;;;;;;;;24.88;100.00;98658.88;5092290;28;19924;-79
2021/08/03 11:33:20;;;;;;;;;;;;;;;24.75;100.00;98656.59;5109229;28;19930;-79
2021/08/03 11:35:47;;;;;;;;;;;;;;;24.06;100.00;98660.06;5109143;28;19932;-78
2021/08/03 11:38:17;;;;;;;;;;;;;;;24.14;100.00;98653.25;5109438;28;19924;-81
2021/08/03 11:40:45;;;;;;;;;;;;;;;24.65;100.00;98654.59;5110557;28;19935;-82
2021/08/03 11:43:12;;;;;;;;;;;;;;;24.68;100.00;98662.09;5122381;28;19976;-82
2021/08/03 11:45:42;;;;;;;;;;;;;;;24.82;100.00;98643.84;5128183;28;20441;-82
2021/08/03 11:48:17;;;;;;;;;;;;;;;24.19;100.00;98648.84;5108921;28;20506;-82
2021/08/03 11:50:45;;;;;;;;;;;;;;;24.18;100.00;98644.44;5102983;28;20029;-82
2021/08/03 11:53:20;;;;;;;;;;;;;;;25.14;100.00;98644.09;5110330;28;19977;-83
2021/08/03 11:55:51;;;;;;;;;;;;;;;25.11;100.00;98625.16;5110809;28;19931;-82
2021/08/03 11:58:20;;;;;;;;;;;;;;;24.48;100.00;98636.75;5116365;28;19924;-81
2021/08/03 12:00:51;;;;;;;;;;;;;;;24.11;100.00;98639.28;5102936;28;19931;-84
2021/08/03 12:03:27;;;;;;;;;;;;;;;23.59;100.00;98644.09;5075771;28;19931;-82
2021/08/03 12:05:54;;;;;;;;;;;;;;;24.06;100.00;98634.38;5114778;28;19985;-81
2021/08/03 12:08:21;;;;;;;;;;;;;;;24.45;100.00;98640.66;5113449;28;20049;-82
2021/08/03 12:10:49;;;;;;;;;;;;;;;23.62;100.00;98643.03;5094708;28;19931;-82
2021/08/03 12:13:27;;;;;;;;;;;;;;;22.68;100.00;98645.91;5113778;28;19924;-82
2021/08/03 12:15:56;;;;;;;;;;;;;;;22.88;100.00;98637.91;5097116;28;19929;-83
2021/08/03 12:18:23;;;;;;;;;;;;;;;22.53;100.00;98636.81;5098692;28;20344;-82
2021/08/03 12:20:50;;;;;;;;;;;;;;;22.92;100.00;98637.63;5078619;28;19924;-84
2021/08/03 12:23:19;;;;;;;;;;;;;;;22.19;100.00;98644.44;5095140;28;19959;-84
2021/08/03 12:25:48;;;;;;;;;;;;;;;23.39;100.00;98630.91;5075169;28;20397;-84
2021/08/03 12:28:26;;;;;;;;;;;;;;;23.71;100.00;98628.50;5098569;28;20014;-83
2021/08/03 12:30:53;;;;;;;;;;;;;;;24.16;100.00;98627.06;5098999;28;19931;-81
2021/08/03 12:33:32;;;;;;;;;;;;;;;24.07;100.00;98627.34;5075732;28;19924;-82
2021/08/03 12:36:02;;;;;;;;;;;;;;;23.83;100.00;98630.00;5094022;28;19924;-83
2021/08/03 12:38:29;;;;;;;;;;;;;;;24.16;100.00;98635.63;5098233;28;20375;-82
2021/08/03 12:40:57;;;;;;;;;;;;;;;24.45;100.00;98629.25;5105168;28;19924;-82
2021/08/03 12:43:37;;;;;;;;;;;;;;;24.27;100.00;98612.72;5071088;28;19925;-83
2021/08/03 12:46:05;;;;;;;;;;;;;;;25.01;100.00;98607.56;5093435;28;19964;-84
2021/08/03 12:48:33;;;;;;;;;;;;;;;24.37;100.00;98622.56;5079314;28;20300;-83
2021/08/03 12:51:02;;;;;;;;;;;;;;;24.61;100.00;98611.25;5081817;28;19924;-83
2021/08/03 12:53:31;;;;;;;;;;;;;;;24.38;100.00;98618.38;5083023;28;20411;-82
2021/08/03 12:56:46;;;;;;;;;;;;;;;24.85;100.00;98617.06;5081511;28;19981;-82